Tropical Cyclones
[Index]
Main Index Home Page Stock Weather Photos Extreme Storms Discussion Storm News and Storm Chasing Reports Tropical Cyclones / Hurricanes / Typhoons Weather Data and Links Wild Fires / Bushfires Weather Observation Techniques Weather Picture Catalogue Tornado Pictures and Reports Stock Video Footage and DVDs for sale
Season 2007-2008 Tropical Cyclone HELEN Track Map
Season 2007-2008 Summaries: [BoM-AU] [JTWC-AU] [JTWC-SIO] [JTWC-SPAC] [JTWC-SH]
<<- Previous TC | BoM 2007-2008 Season | Next TC ->>

click for intensity scale information  Lat/long Grid: Show Hide

 Date Labels: Show Hide

Bureau of Meteorology Tropical Cyclone Data

Name: HELEN
Number: 913 / 200708_08

28 Dec 2007 00:00 UTC to 06 Jan 2008 06:00 UTC

    date/time    lat    long    hPa   cat  kts
2007-12-28 00   13.2   130.9   1003                     
2007-12-28 03   13.5   131.7   1001                     
2007-12-28 06   13.8   132.0    998                     
2007-12-28 09   13.6   132.5    998                     
2007-12-28 12   13.4   132.8   1001                     
2007-12-28 15   13.2   132.8   1000                     
2007-12-28 18   13.1   132.8    998                     
2007-12-28 21   13.1   132.8    998                     
2007-12-29 00   13.0   132.8   1000                     
2007-12-29 03   12.8   132.7    999                     
2007-12-29 06   12.7   132.7    997                     
2007-12-29 09   12.7   132.8    997                     
2007-12-29 12   12.6   132.8   1000                     
2007-12-29 15   12.7   132.9    999                     
2007-12-29 18   12.7   133.0    997                     
2007-12-29 21   12.8   133.1    996                     
2007-12-30 00   13.0   133.2    999                     
2007-12-30 03   13.2   133.4    998                     
2007-12-30 06   13.3   133.5    997                     
2007-12-30 09   13.4   133.7    997                     
2007-12-30 12   13.5   134.1    997                     
2007-12-30 15   13.6   134.4    997                     
2007-12-30 18   13.8   134.5    995    1                
2007-12-30 21   14.2   134.6    996                     
2007-12-31 00   14.6   134.7    997                     
2007-12-31 03   14.9   134.9    995    1                
2007-12-31 06   15.1   135.0    993    1                
2007-12-31 09   15.4   135.0    993    1                
2007-12-31 12   15.6   134.9    995    1                
2007-12-31 15   15.7   134.8    997                     
2007-12-31 18   15.8   134.6    995    1                
2007-12-31 21   15.9   134.5    995    1                
2008-01-01 00   15.9   134.3    996                     
2008-01-01 03   15.8   134.0    995    1                
2008-01-01 06   15.8   133.6    993    1                
2008-01-01 09   15.7   133.1    994    1                
2008-01-01 12   15.7   132.4    995    1                
2008-01-01 15   15.7   131.5    995    1                
2008-01-01 18   15.6   131.0    995    1                
2008-01-01 21   15.4   130.6    995    1                
2008-01-02 00   14.8   130.0    998                     
2008-01-02 03   14.7   129.8    996                     
2008-01-02 06   14.5   129.7    995    1                
2008-01-02 09   14.4   129.6    994    1                
2008-01-02 12   14.2   129.4    997                     
2008-01-02 15   14.0   129.2    997                     
2008-01-02 18   14.0   129.0    995    1                
2008-01-02 21   14.0   128.8    995    1                
2008-01-03 00   14.1   128.6    995    1                
2008-01-03 03   14.1   128.3    995    1                
2008-01-03 06   14.1   127.9    993    1                
2008-01-03 09   14.1   127.8    991    1                
2008-01-03 12   14.1   127.8    992    1                
2008-01-03 15   14.1   127.7    990    1                
2008-01-03 18   14.0   127.6    990    1                
2008-01-03 21   13.7   127.6    990    1                
2008-01-04 00   13.4   128.1    985    2    35          
2008-01-04 03   13.3   128.6    983    2    40          
2008-01-04 06   13.3   128.9    981    2    45          
2008-01-04 09   13.2   129.4    975    2    50          
2008-01-04 12   13.1   129.9    975    2    50          
2008-01-04 15   13.2   130.4    978    2    50          
2008-01-04 18   13.3   131.0    980    2    45          
2008-01-04 21   13.4   131.6    985    2    35          
2008-01-05 00   13.4   132.2    990    1                
2008-01-05 06   13.2   133.9    992    1                
2008-01-05 12   13.3   135.4    994    1                
2008-01-05 18   13.3   136.8    992    1                
2008-01-06 00   13.5   138.6    992    1                
2008-01-06 06   14.4   140.3    992    1                
Winds are 10-min average.

Tropical cyclone tracks developed by Michael Bath using data from the Bureau of Meteorology and Google Maps.


[Australian Severe Weather index] [Copyright Notice] [Email Contacts] [Search This Site] [Privacy Policy]
Document: tropical_cyclone_helen.htm Updated: 29 June 2017